Time;durP1;ratioP1;P1;durP2;ratioP2;P2;SDS_P1;SDS_P2;PMS_P1;PMS_P2;Temp;Humidity;BMP_temperature;BMP_pressure;BME280_temperature;BME280_humidity;BME280_pressure;Samples;Min_cycle;Max_cycle;Signal;HPM_P1;HPM_P2
2022/04/26 03:36:59;;;;;;;15.70;8.77;;;7.90;99.90;;;;;;5072469;28;20044;-70
2022/04/26 03:39:25;;;;;;;21.40;8.65;;;7.90;99.90;;;;;;5073707;28;20066;-71
2022/04/26 03:41:51;;;;;;;18.83;8.07;;;7.90;99.90;;;;;;5094515;28;20089;-70
2022/04/26 03:44:17;;;;;;;13.88;7.85;;;7.80;99.90;;;;;;5076287;28;20778;-71
2022/04/26 03:46:42;;;;;;;22.65;8.65;;;7.80;99.90;;;;;;5059868;28;20580;-71
2022/04/26 03:49:08;;;;;;;13.98;8.10;;;7.80;99.90;;;;;;5076000;28;20040;-71
2022/04/26 03:51:33;;;;;;;15.77;8.02;;;7.80;99.90;;;;;;5076126;28;20039;-71
2022/04/26 03:53:59;;;;;;;17.25;8.38;;;7.80;99.90;;;;;;5076012;28;20040;-71
2022/04/26 03:56:24;;;;;;;18.45;8.40;;;7.80;99.90;;;;;;5059447;28;20510;-71
2022/04/26 03:58:50;;;;;;;18.30;8.85;;;7.70;99.90;;;;;;5075603;28;20134;-71
2022/04/26 04:01:15;;;;;;;20.02;8.70;;;7.80;99.90;;;;;;5075860;28;20036;-71
2022/04/26 04:03:41;;;;;;;25.48;9.48;;;7.70;99.90;;;;;;5075888;28;20040;-71
2022/04/26 04:06:07;;;;;;;19.75;8.65;;;7.70;99.90;;;;;;5075850;28;20055;-71
2022/04/26 04:08:33;;;;;;;14.35;8.07;;;7.70;99.90;;;;;;5059011;28;20389;-71
2022/04/26 04:10:58;;;;;;;17.30;9.10;;;7.70;99.90;;;;;;5075809;28;20065;-71
2022/04/26 04:13:24;;;;;;;14.20;7.72;;;7.70;99.90;;;;;;5092079;28;20048;-70
2022/04/26 04:15:49;;;;;;;21.90;10.43;;;7.60;99.90;;;;;;5072912;28;20424;-76
2022/04/26 04:21:00;;;;;;;14.18;8.05;;;7.60;99.90;;;;;;5075618;28;20044;-72
2022/04/26 04:23:26;;;;;;;15.63;9.07;;;7.70;99.90;;;;;;5075239;28;20589;-73
2022/04/26 04:25:51;;;;;;;17.42;8.48;;;7.70;99.90;;;;;;5074303;28;20043;-72
2022/04/26 04:28:17;;;;;;;21.08;8.27;;;7.60;99.90;;;;;;5074590;28;20142;-73
2022/04/26 04:30:42;;;;;;;20.75;8.05;;;7.70;99.90;;;;;;5075425;28;20060;-73
2022/04/26 04:33:08;;;;;;;23.55;9.48;;;7.70;99.90;;;;;;5075645;28;20415;-73
2022/04/26 04:35:34;;;;;;;19.42;7.88;;;7.60;99.90;;;;;;5075511;28;20044;-73
2022/04/26 04:38:00;;;;;;;21.42;8.25;;;7.60;99.90;;;;;;5075504;28;20081;-73
2022/04/26 04:40:25;;;;;;;22.27;8.52;;;7.60;99.90;;;;;;5093543;28;20561;-72
2022/04/26 04:42:51;;;;;;;19.63;8.18;;;7.60;99.90;;;;;;5061158;28;20545;-73
2022/04/26 04:45:16;;;;;;;15.32;7.60;;;7.60;99.90;;;;;;5103953;28;20123;-72
2022/04/26 04:47:42;;;;;;;21.90;7.70;;;7.60;99.90;;;;;;5105030;28;20538;-72
2022/04/26 04:50:08;;;;;;;17.95;8.45;;;7.70;99.90;;;;;;5103786;28;20040;-73
2022/04/26 04:52:33;;;;;;;26.00;7.43;;;7.60;99.90;;;;;;5103953;28;20051;-73
2022/04/26 04:54:59;;;;;;;13.90;7.78;;;7.70;99.90;;;;;;5103559;28;20040;-73
2022/04/26 04:57:25;;;;;;;17.25;7.95;;;7.70;99.90;;;;;;5085203;28;20044;-72
2022/04/26 04:59:50;;;;;;;20.33;7.22;;;7.70;99.90;;;;;;5085439;28;20086;-73
2022/04/26 05:02:16;;;;;;;18.80;8.27;;;7.70;99.90;;;;;;5085382;28;20040;-72
2022/04/26 05:04:42;;;;;;;11.68;7.38;;;7.80;99.90;;;;;;5086272;28;20039;-73
2022/04/26 05:07:08;;;;;;;20.50;7.20;;;7.70;99.90;;;;;;5085664;28;20138;-73
2022/04/26 05:09:34;;;;;;;15.23;7.50;;;7.70;99.90;;;;;;5078550;28;20111;-73
2022/04/26 05:12:00;;;;;;;15.23;7.43;;;7.70;99.90;;;;;;5075093;28;20150;-73
2022/04/26 05:14:25;;;;;;;17.10;7.60;;;7.80;99.90;;;;;;5074510;28;20040;-72
2022/04/26 05:16:51;;;;;;;17.35;7.70;;;7.80;99.90;;;;;;5074989;28;20032;-72
2022/04/26 05:19:17;;;;;;;15.55;6.97;;;7.80;99.90;;;;;;5092515;28;20036;-73
2022/04/26 05:21:42;;;;;;;17.63;7.40;;;7.80;99.90;;;;;;5057880;28;20169;-72
2022/04/26 05:27:09;;;;;;;15.65;7.40;;;7.80;99.90;;;;;;5013450;28;20092;-72
2022/04/26 05:29:36;;;;;;;19.58;7.30;;;7.80;99.90;;;;;;5078887;28;20084;-72
2022/04/26 05:32:01;;;;;;;10.45;7.72;;;7.80;99.90;;;;;;5074134;28;20056;-72
2022/04/26 05:34:28;;;;;;;16.98;7.35;;;7.80;99.90;;;;;;5073956;28;20076;-73
2022/04/26 05:36:53;;;;;;;16.92;7.45;;;7.90;99.90;;;;;;5074192;28;20036;-73
2022/04/26 05:39:19;;;;;;;14.00;7.13;;;7.80;99.90;;;;;;5073842;28;20142;-72
2022/04/26 05:41:44;;;;;;;19.42;7.75;;;7.80;99.90;;;;;;5092245;28;20032;-72
2022/04/26 05:44:10;;;;;;;16.27;7.65;;;7.80;99.90;;;;;;5092090;28;20123;-74
2022/04/26 05:46:36;;;;;;;18.95;8.68;;;7.80;99.90;;;;;;5092159;28;20055;-72
2022/04/26 05:49:01;;;;;;;17.98;10.45;;;7.90;99.90;;;;;;5091880;28;20032;-72
2022/04/26 05:51:27;;;;;;;17.15;7.93;;;7.90;99.90;;;;;;5092124;28;20040;-73
2022/04/26 05:53:52;;;;;;;17.67;7.68;;;7.90;99.90;;;;;;5091964;28;20085;-74
2022/04/26 05:56:18;;;;;;;19.13;8.00;;;7.90;99.90;;;;;;5074139;28;20035;-73
2022/04/26 05:58:43;;;;;;;17.35;7.18;;;7.90;99.90;;;;;;5073439;28;20040;-72
2022/04/26 06:01:09;;;;;;;31.23;8.30;;;8.00;99.90;;;;;;5091492;28;20036;-72
2022/04/26 06:03:34;;;;;;;23.13;7.68;;;8.00;99.90;;;;;;5091681;28;20043;-72
2022/04/26 06:06:00;;;;;;;15.60;7.13;;;8.00;99.90;;;;;;5091756;28;20684;-72
2022/04/26 06:08:25;;;;;;;16.17;7.03;;;8.10;99.90;;;;;;5091338;28;20071;-75
2022/04/26 06:10:51;;;;;;;20.38;7.72;;;8.10;99.90;;;;;;5091914;28;20114;-72
2022/04/26 06:13:16;;;;;;;25.70;7.35;;;8.10;99.90;;;;;;5091815;28;20036;-72
2022/04/26 06:15:42;;;;;;;18.75;6.90;;;8.10;99.90;;;;;;5073300;28;20047;-73
2022/04/26 06:18:07;;;;;;;16.45;6.47;;;8.10;99.90;;;;;;5057019;28;20044;-72
2022/04/26 06:20:33;;;;;;;16.65;6.75;;;8.20;99.90;;;;;;5091301;28;20039;-72
2022/04/26 06:23:00;;;;;;;14.35;6.95;;;8.20;99.90;;;;;;5091465;28;20040;-72
2022/04/26 06:25:26;;;;;;;13.40;5.95;;;8.30;99.90;;;;;;5073338;28;20055;-72
2022/04/26 06:27:51;;;;;;;20.27;6.90;;;8.30;99.90;;;;;;5073209;28;20035;-73
2022/04/26 06:30:17;;;;;;;17.98;6.88;;;8.30;99.90;;;;;;5073195;28;20051;-72
2022/04/26 06:32:43;;;;;;;19.80;6.22;;;8.40;99.90;;;;;;5091849;28;20507;-72
2022/04/26 06:35:09;;;;;;;12.75;6.43;;;8.40;99.90;;;;;;5073296;28;20040;-72
2022/04/26 06:37:35;;;;;;;17.63;6.72;;;8.40;99.90;;;;;;5073591;28;20488;-72
2022/04/26 06:40:00;;;;;;;14.27;6.15;;;8.40;99.90;;;;;;5092404;28;20042;-72
2022/04/26 06:42:27;;;;;;;14.75;6.68;;;8.40;99.90;;;;;;5057505;28;20028;-72
2022/04/26 06:44:52;;;;;;;17.23;6.50;;;8.50;99.90;;;;;;5058202;28;20040;-72
2022/04/26 06:47:18;;;;;;;18.25;6.20;;;8.50;99.90;;;;;;5059450;28;20484;-73
2022/04/26 06:49:43;;;;;;;16.17;5.75;;;8.50;99.90;;;;;;5077770;28;20044;-72
2022/04/26 06:52:09;;;;;;;11.90;6.53;;;8.60;99.90;;;;;;5089889;28;20046;-72
2022/04/26 06:54:34;;;;;;;16.33;6.05;;;8.60;99.90;;;;;;5089286;28;20040;-72
2022/04/26 06:57:00;;;;;;;17.73;5.78;;;8.60;99.90;;;;;;5107450;28;20123;-73
2022/04/26 06:59:25;;;;;;;11.32;5.60;;;8.60;99.90;;;;;;5105335;28;20032;-72
2022/04/26 07:01:54;;;;;;;12.98;6.35;;;8.60;99.90;;;;;;5057922;28;20047;-72
2022/04/26 07:04:20;;;;;;;13.50;6.10;;;8.70;99.90;;;;;;5074667;28;20476;-74
2022/04/26 07:06:47;;;;;;;14.20;5.70;;;8.70;99.90;;;;;;5072881;28;20123;-72
2022/04/26 07:09:12;;;;;;;12.98;6.18;;;8.80;99.90;;;;;;5072644;28;20554;-73
2022/04/26 07:11:38;;;;;;;14.82;6.15;;;8.80;99.90;;;;;;5091200;28;20040;-72
2022/04/26 07:14:03;;;;;;;13.05;5.93;;;8.90;99.90;;;;;;5093788;28;20594;-72
2022/04/26 07:16:29;;;;;;;12.43;6.15;;;8.90;99.90;;;;;;5077206;28;20426;-72
2022/04/26 07:18:55;;;;;;;12.95;5.88;;;8.90;99.90;;;;;;5094938;28;20404;-73
2022/04/26 07:21:21;;;;;;;11.20;5.90;;;8.90;99.90;;;;;;5095034;28;20506;-72
2022/04/26 07:23:47;;;;;;;15.02;6.07;;;8.90;99.90;;;;;;5095363;28;20074;-73
2022/04/26 07:26:13;;;;;;;18.13;6.32;;;9.00;99.90;;;;;;5094904;28;20047;-74
2022/04/26 07:28:39;;;;;;;14.23;6.47;;;9.00;99.90;;;;;;5094738;28;20044;-72
2022/04/26 07:31:05;;;;;;;14.13;5.63;;;9.10;99.90;;;;;;5077312;28;20032;-72
2022/04/26 07:36:15;;;;;;;11.88;6.70;;;9.10;99.90;;;;;;5076376;28;20046;-72
2022/04/26 07:38:41;;;;;;;10.30;5.47;;;9.20;99.90;;;;;;5094306;28;20115;-72
2022/04/26 07:41:07;;;;;;;9.05;5.72;;;9.20;99.90;;;;;;5094695;28;20093;-72
2022/04/26 07:43:33;;;;;;;14.98;5.47;;;9.20;99.90;;;;;;5094415;28;20575;-73
2022/04/26 07:45:59;;;;;;;13.60;5.70;;;9.30;99.90;;;;;;5076231;28;20115;-74
2022/04/26 07:48:25;;;;;;;11.52;5.43;;;9.40;99.90;;;;;;5094026;28;20078;-73
2022/04/26 07:50:51;;;;;;;8.13;5.00;;;9.40;99.90;;;;;;5094570;28;20032;-72
2022/04/26 07:53:16;;;;;;;10.88;5.30;;;9.40;99.90;;;;;;5094408;28;20090;-73
2022/04/26 07:55:42;;;;;;;8.60;5.00;;;9.40;99.90;;;;;;5094346;28;20055;-73
2022/04/26 07:58:08;;;;;;;9.60;4.90;;;9.40;99.90;;;;;;5094338;28;20036;-73
2022/04/26 08:00:35;;;;;;;9.00;4.97;;;9.60;99.90;;;;;;5075740;28;20098;-74
2022/04/26 08:03:02;;;;;;;8.57;5.00;;;9.70;99.90;;;;;;5059254;28;20040;-73
2022/04/26 08:05:29;;;;;;;11.65;4.72;;;9.70;99.90;;;;;;5094092;28;20044;-73
2022/04/26 08:07:55;;;;;;;13.73;5.30;;;9.80;99.90;;;;;;5094312;28;20119;-72
2022/04/26 08:10:20;;;;;;;10.55;5.65;;;9.80;99.90;;;;;;5093652;28;20138;-72
2022/04/26 08:12:46;;;;;;;10.00;4.63;;;9.90;99.90;;;;;;5094039;28;20047;-72
2022/04/26 08:15:13;;;;;;;16.63;5.75;;;9.90;99.90;;;;;;5093764;28;20048;-74
2022/04/26 08:17:40;;;;;;;18.98;5.22;;;9.90;99.90;;;;;;5075746;28;20036;-73
2022/04/26 08:20:10;;;;;;;13.25;5.38;;;10.00;99.90;;;;;;5075254;28;20555;-73
2022/04/26 08:22:35;;;;;;;14.55;6.07;;;10.10;99.90;;;;;;5075592;28;20043;-72
2022/04/26 08:27:45;;;;;;;12.50;4.32;;;10.10;99.90;;;;;;5075477;28;20048;-72
2022/04/26 08:30:11;;;;;;;10.48;4.68;;;10.10;99.90;;;;;;5058395;28;20040;-72
2022/04/26 08:32:47;;;;;;;11.32;4.60;;;10.20;99.90;;;;;;5075741;28;20039;-72
2022/04/26 08:35:18;;;;;;;11.52;4.97;;;10.20;99.90;;;;;;5058633;28;20101;-73
2022/04/26 08:37:44;;;;;;;10.68;4.43;;;10.30;99.90;;;;;;5075459;28;20118;-73
2022/04/26 08:40:10;;;;;;;6.53;4.20;;;10.30;99.90;;;;;;5075034;28;20119;-72
2022/04/26 08:42:40;;;;;;;6.00;3.75;;;10.40;99.90;;;;;;5058874;28;20447;-73
2022/04/26 08:45:08;;;;;;;11.88;3.92;;;10.30;99.90;;;;;;5075154;28;20048;-72
2022/04/26 08:53:04;;;;;;;5.53;3.35;;;10.40;99.90;;;;;;5093084;28;20113;-73
2022/04/26 08:55:33;;;;;;;10.55;4.03;;;10.40;99.90;;;;;;5074847;28;20408;-73
2022/04/26 08:57:59;;;;;;;11.68;4.38;;;10.50;99.90;;;;;;5075102;28;20482;-73
2022/04/26 09:00:25;;;;;;;7.53;3.75;;;10.50;99.90;;;;;;5074550;28;20115;-72
2022/04/26 09:03:02;;;;;;;8.02;3.80;;;10.60;99.90;;;;;;5075052;28;20051;-73
2022/04/26 09:05:29;;;;;;;6.65;3.67;;;10.60;99.90;;;;;;5074649;28;20075;-73
2022/04/26 09:07:55;;;;;;;12.18;3.88;;;10.70;99.90;;;;;;5075079;28;20369;-73
2022/04/26 09:10:21;;;;;;;9.98;4.00;;;10.70;99.90;;;;;;5074394;28;20070;-73
2022/04/26 09:13:11;;;;;;;10.60;3.72;;;10.90;99.90;;;;;;5092934;28;20047;-73
2022/04/26 09:15:40;;;;;;;10.68;3.72;;;11.00;99.90;;;;;;5074485;28;20457;-73
2022/04/26 09:18:22;;;;;;;7.63;3.38;;;11.10;99.90;;;;;;5092615;28;20143;-73
2022/04/26 09:20:49;;;;;;;;;;;11.20;99.90;;;;;;5058275;28;20051;-73
2022/04/26 09:23:17;;;;;;;8.75;3.22;;;11.40;99.90;;;;;;5092709;28;19970;-72
2022/04/26 09:25:43;;;;;;;6.95;3.63;;;11.20;99.90;;;;;;5074472;28;20051;-73
2022/04/26 09:28:09;;;;;;;7.63;3.50;;;11.20;99.90;;;;;;5074206;28;20040;-73
2022/04/26 09:30:36;;;;;;;7.68;3.50;;;11.50;99.90;;;;;;5074216;28;20386;-72
2022/04/26 09:33:01;;;;;;;6.80;3.35;;;11.50;99.90;;;;;;5074211;28;20044;-73
2022/04/26 09:35:29;;;;;;;7.80;4.05;;;11.60;99.90;;;;;;5074136;28;20051;-73
2022/04/26 09:37:55;;;;;;;7.60;3.50;;;11.50;99.90;;;;;;5056751;28;20093;-73
2022/04/26 09:40:21;;;;;;;7.45;3.28;;;11.50;99.90;;;;;;5074072;28;20422;-72
2022/04/26 09:42:48;;;;;;;8.48;3.78;;;11.60;99.90;;;;;;5057384;28;20036;-72
2022/04/26 09:45:16;;;;;;;9.07;3.80;;;11.80;99.90;;;;;;5073884;28;20044;-73
2022/04/26 09:47:42;;;;;;;8.00;3.97;;;11.70;99.90;;;;;;5092239;28;20046;-72
2022/04/26 09:50:09;;;;;;;8.15;3.92;;;11.70;99.90;;;;;;5073594;28;20127;-72
2022/04/26 09:52:36;;;;;;;5.15;3.53;;;11.70;99.90;;;;;;5074081;28;20391;-73
2022/04/26 09:55:03;;;;;;;5.88;3.60;;;11.70;99.90;;;;;;5073721;28;20083;-73
2022/04/26 09:57:32;;;;;;;8.73;3.90;;;11.80;99.90;;;;;;5073639;28;20081;-73
2022/04/26 10:00:00;;;;;;;10.48;3.47;;;11.70;99.90;;;;;;5091527;28;20086;-72
2022/04/26 10:02:31;;;;;;;6.13;3.00;;;11.80;99.90;;;;;;5073718;28;20040;-72
2022/04/26 10:05:02;;;;;;;9.45;3.75;;;11.80;99.90;;;;;;5073622;28;20036;-73
2022/04/26 10:07:30;;;;;;;12.10;4.07;;;11.80;99.90;;;;;;5073660;28;20070;-73
2022/04/26 10:09:56;;;;;;;7.43;3.60;;;11.80;99.90;;;;;;5073214;28;20044;-72
2022/04/26 10:12:22;;;;;;;7.15;3.78;;;11.80;99.90;;;;;;5056805;28;20066;-72
2022/04/26 10:14:48;;;;;;;9.77;3.40;;;11.90;99.90;;;;;;5091633;28;20036;-73
2022/04/26 10:17:19;;;;;;;13.30;3.78;;;11.90;99.90;;;;;;5091748;28;20036;-72
2022/04/26 10:19:45;;;;;;;6.15;3.30;;;12.00;99.90;;;;;;5091347;28;20040;-73
2022/04/26 10:22:14;;;;;;;5.95;3.38;;;12.10;99.90;;;;;;5073336;28;20047;-72
2022/04/26 10:24:40;;;;;;;8.27;3.55;;;12.10;99.90;;;;;;5091367;28;20069;-73
2022/04/26 10:27:26;;;;;;;8.38;3.63;;;12.30;99.90;;;;;;5091377;28;20040;-73
2022/04/26 10:29:52;;;;;;;8.40;3.65;;;12.30;99.90;;;;;;5072726;28;20056;-73
2022/04/26 10:32:34;;;;;;;5.70;3.45;;;12.50;99.90;;;;;;5073117;28;20201;-73
2022/04/26 10:35:25;;;;;;;8.00;3.70;;;12.40;99.90;;;;;;5090955;28;20044;-73
2022/04/26 10:38:17;;;;;;;8.00;3.33;;;12.40;99.90;;;;;;5091413;28;20119;-73
2022/04/26 10:41:09;;;;;;;6.80;3.45;;;12.50;99.90;;;;;;5087272;28;20522;-72
2022/04/26 10:43:34;;;;;;;5.13;3.33;;;12.60;99.90;;;;;;5091146;28;20043;-72
2022/04/26 10:46:14;;;;;;;13.02;3.67;;;12.60;99.90;;;;;;5091284;28;20119;-73
2022/04/26 10:48:41;;;;;;;6.95;3.25;;;12.70;99.90;;;;;;5090687;28;20085;-73
2022/04/26 10:51:35;;;;;;;8.30;3.60;;;12.70;99.90;;;;;;5091083;28;20120;-72
2022/04/26 10:54:02;;;;;;;12.23;4.20;;;12.50;99.90;;;;;;5090981;28;20040;-72
2022/04/26 10:56:28;;;;;;;6.75;3.58;;;12.50;99.90;;;;;;5091119;28;20044;-72
2022/04/26 10:58:54;;;;;;;9.13;3.40;;;12.80;99.90;;;;;;5090837;28;20682;-72
2022/04/26 11:01:29;;;;;;;8.38;4.10;;;13.00;99.90;;;;;;5091020;28;20067;-72
2022/04/26 11:03:57;;;;;;;8.20;3.30;;;13.00;99.90;;;;;;5091077;28;20047;-72
2022/04/26 11:06:42;;;;;;;8.70;3.63;;;12.70;99.90;;;;;;5090799;28;20124;-72
2022/04/26 11:09:14;;;;;;;8.55;4.03;;;12.70;99.90;;;;;;5090865;28;20036;-73
2022/04/26 11:11:54;;;;;;;7.72;3.80;;;12.70;99.90;;;;;;5073020;28;20062;-72
2022/04/26 11:14:20;;;;;;;8.07;4.07;;;12.80;99.90;;;;;;5072469;28;20109;-72
2022/04/26 11:16:55;;;;;;;6.32;3.65;;;12.90;99.90;;;;;;5055910;28;20070;-72
2022/04/26 11:19:32;;;;;;;5.82;3.40;;;12.80;99.90;;;;;;5055933;28;20460;-72
2022/04/26 11:22:12;;;;;;;10.93;3.60;;;12.80;99.90;;;;;;5090929;28;20032;-72
2022/04/26 11:30:08;;;;;;;10.88;3.72;;;13.20;99.90;;;;;;5090570;28;20044;-72
2022/04/26 11:32:42;;;;;;;5.38;3.30;;;13.50;99.90;;;;;;5090883;28;20064;-72
2022/04/26 11:35:13;;;;;;;10.35;3.88;;;13.50;99.90;;;;;;5090801;28;20059;-73
2022/04/26 11:37:46;;;;;;;10.48;3.97;;;13.40;99.90;;;;;;5090715;28;20036;-73
2022/04/26 11:40:20;;;;;;;8.18;3.38;;;13.30;99.20;;;;;;5090525;28;20040;-71
2022/04/26 11:42:45;;;;;;;4.55;3.47;;;13.30;99.90;;;;;;5072468;28;20127;-73
2022/04/26 11:45:11;;;;;;;7.57;3.35;;;13.60;99.90;;;;;;5072360;28;20119;-74
2022/04/26 11:47:48;;;;;;;6.78;3.22;;;13.60;96.60;;;;;;5072588;28;20046;-72
2022/04/26 11:50:25;;;;;;;7.53;3.60;;;13.50;98.40;;;;;;5055606;28;20078;-72
2022/04/26 11:52:55;;;;;;;5.93;3.45;;;13.70;98.30;;;;;;5072475;28;20039;-72
2022/04/26 11:55:26;;;;;;;8.77;3.60;;;13.70;99.90;;;;;;5072364;28;20044;-72
2022/04/26 11:57:53;;;;;;;9.88;3.30;;;13.90;99.90;;;;;;5072589;28;20464;-73
2022/04/26 12:00:21;;;;;;;11.93;3.97;;;13.80;97.10;;;;;;5073212;28;20165;-72
2022/04/26 12:02:48;;;;;;;5.07;2.80;;;13.60;98.70;;;;;;5076007;28;20043;-72
2022/04/26 12:05:21;;;;;;;6.45;3.45;;;13.70;99.90;;;;;;5076124;28;20048;-72
2022/04/26 12:07:48;;;;;;;8.57;3.50;;;13.60;95.50;;;;;;5076159;28;20040;-72
2022/04/26 12:10:29;;;;;;;5.03;3.10;;;13.50;93.90;;;;;;5075786;28;20048;-73
2022/04/26 12:13:01;;;;;;;9.30;3.40;;;13.60;97.70;;;;;;5075910;28;20075;-72
2022/04/26 12:15:32;;;;;;;8.77;3.30;;;13.60;97.50;;;;;;5075629;28;20040;-71
2022/04/26 12:18:14;;;;;;;8.30;3.10;;;13.70;98.00;;;;;;5075744;28;20092;-74
2022/04/26 12:21:02;;;;;;;5.68;3.55;;;13.60;95.30;;;;;;5075428;28;20493;-72
2022/04/26 12:23:29;;;;;;;10.48;3.20;;;13.80;97.90;;;;;;5093670;28;20044;-74
2022/04/26 12:26:07;;;;;;;4.75;2.33;;;13.70;98.30;;;;;;5075479;28;20053;-72
2022/04/26 12:28:43;;;;;;;6.30;3.25;;;13.70;94.10;;;;;;5075136;28;20056;-72
2022/04/26 12:31:26;;;;;;;6.93;3.25;;;13.70;94.30;;;;;;5093734;28;20160;-73
2022/04/26 12:34:12;;;;;;;9.40;3.08;;;13.60;93.50;;;;;;5075429;28;20040;-72
2022/04/26 12:36:57;;;;;;;7.95;3.33;;;13.90;98.40;;;;;;5093744;28;20048;-72
2022/04/26 12:39:24;;;;;;;8.45;2.95;;;14.00;91.20;;;;;;5093194;28;20044;-72
2022/04/26 12:41:53;;;;;;;6.75;3.00;;;14.10;94.50;;;;;;5093460;28;20657;-72
2022/04/26 12:44:19;;;;;;;10.25;4.05;;;14.00;99.20;;;;;;5093421;28;20067;-73
2022/04/26 12:52:49;;;;;;;6.45;2.75;;;13.80;94.80;;;;;;5074949;28;20111;-73
2022/04/26 12:55:24;;;;;;;7.80;2.90;;;14.00;96.30;;;;;;5074816;28;20408;-71
2022/04/26 12:57:51;;;;;;;5.03;3.50;;;14.10;93.40;;;;;;5074889;28;20040;-72
2022/04/26 13:00:21;;;;;;;5.78;2.78;;;14.20;88.40;;;;;;5074503;28;20121;-72
2022/04/26 13:02:52;;;;;;;5.05;3.05;;;14.10;92.70;;;;;;5074672;28;20035;-72
2022/04/26 13:05:19;;;;;;;7.00;2.80;;;13.90;94.00;;;;;;5074632;28;20043;-76
2022/04/26 13:07:48;;;;;;;7.55;2.70;;;13.80;91.60;;;;;;5074815;28;20122;-73
2022/04/26 13:10:15;;;;;;;7.20;2.78;;;13.90;93.70;;;;;;5057574;28;20044;-73
2022/04/26 13:12:41;;;;;;;10.48;2.78;;;13.90;95.90;;;;;;5074518;28;20496;-73
2022/04/26 13:15:10;;;;;;;4.93;2.90;;;13.90;97.00;;;;;;5092682;28;20114;-72
2022/04/26 13:17:39;;;;;;;3.42;2.60;;;13.90;92.60;;;;;;5074482;28;20061;-72
2022/04/26 13:20:06;;;;;;;6.05;2.65;;;13.90;82.40;;;;;;5074245;28;20032;-72
2022/04/26 13:22:36;;;;;;;4.32;2.80;;;13.90;84.40;;;;;;5092538;28;20492;-73
2022/04/26 13:25:06;;;;;;;5.78;2.72;;;14.00;87.00;;;;;;5074253;28;20488;-73
2022/04/26 13:27:33;;;;;;;4.05;2.65;;;14.10;92.40;;;;;;5074597;28;20043;-73
2022/04/26 13:30:00;;;;;;;6.20;3.05;;;14.10;82.20;;;;;;5057330;28;20040;-73
2022/04/26 13:32:26;;;;;;;3.65;2.40;;;14.10;91.10;;;;;;5074242;28;20044;-73
2022/04/26 13:34:52;;;;;;;8.43;2.85;;;14.20;91.20;;;;;;5074037;28;20057;-73
2022/04/26 13:37:19;;;;;;;6.07;3.33;;;14.30;93.40;;;;;;5073965;28;20051;-74
2022/04/26 13:39:45;;;;;;;4.55;2.78;;;14.50;91.40;;;;;;5091893;28;20088;-73
2022/04/26 13:42:12;;;;;;;5.80;2.85;;;14.50;90.00;;;;;;5073917;28;20048;-72
2022/04/26 13:44:38;;;;;;;8.43;3.00;;;14.60;92.80;;;;;;5074013;28;20587;-73
2022/04/26 13:47:06;;;;;;;3.88;2.80;;;14.30;87.80;;;;;;5073808;28;20083;-73
2022/04/26 13:49:40;;;;;;;4.47;2.83;;;14.10;92.60;;;;;;5073430;28;20070;-73
2022/04/26 13:52:07;;;;;;;7.05;2.72;;;14.30;91.00;;;;;;5073820;28;20036;-73
2022/04/26 13:54:36;;;;;;;5.57;2.72;;;14.40;93.00;;;;;;5073520;28;20063;-73
2022/04/26 13:57:02;;;;;;;6.35;2.80;;;14.50;87.30;;;;;;5073500;28;20545;-73
2022/04/26 13:59:28;;;;;;;6.97;2.88;;;14.50;92.50;;;;;;5073213;28;20111;-73
2022/04/26 14:01:55;;;;;;;6.43;2.70;;;14.60;91.40;;;;;;5056972;28;20072;-72
2022/04/26 14:04:21;;;;;;;5.72;2.90;;;14.70;90.00;;;;;;5073492;28;20048;-74
2022/04/26 14:06:47;;;;;;;6.63;3.33;;;14.70;90.60;;;;;;5092165;28;20075;-72
2022/04/26 14:09:14;;;;;;;7.28;2.80;;;14.60;84.00;;;;;;5091531;28;20075;-72
2022/04/26 14:11:40;;;;;;;10.32;3.28;;;14.50;93.00;;;;;;5073833;28;20103;-72
2022/04/26 14:22:19;;;;;;;5.80;2.85;;;14.20;81.90;;;;;;5073034;28;20251;-72
2022/04/26 14:24:45;;;;;;;5.80;2.85;;;14.10;80.30;;;;;;5073140;28;20075;-72
2022/04/26 14:27:11;;;;;;;7.45;2.80;;;14.10;89.40;;;;;;5091556;28;20040;-73
2022/04/26 14:29:37;;;;;;;7.43;2.67;;;14.20;83.20;;;;;;5091088;28;20039;-73
2022/04/26 14:32:03;;;;;;;5.43;2.40;;;14.30;89.40;;;;;;5091469;28;20044;-73
2022/04/26 14:34:29;;;;;;;5.03;2.42;;;14.30;70.90;;;;;;5091193;28;20464;-72
2022/04/26 14:36:55;;;;;;;3.95;2.35;;;14.10;83.00;;;;;;5073100;28;20051;-72
2022/04/26 14:39:22;;;;;;;6.65;2.42;;;14.10;78.40;;;;;;5091147;28;20134;-72
2022/04/26 14:41:47;;;;;;;5.30;2.90;;;14.10;75.30;;;;;;5091346;28;20032;-72
2022/04/26 14:44:13;;;;;;;7.30;2.55;;;14.10;90.70;;;;;;5091197;28;20119;-72
2022/04/26 14:46:38;;;;;;;5.38;2.55;;;14.20;74.90;;;;;;5056527;28;20055;-72
2022/04/26 14:49:06;;;;;;;4.63;2.40;;;14.20;83.10;;;;;;5090846;28;20043;-72
2022/04/26 14:51:32;;;;;;;4.05;2.90;;;14.20;82.10;;;;;;5073010;28;20678;-72
2022/04/26 14:53:58;;;;;;;6.53;2.72;;;14.10;75.80;;;;;;5073232;28;20044;-74
2022/04/26 14:56:23;;;;;;;4.65;2.30;;;14.10;76.90;;;;;;5091028;28;20093;-72
2022/04/26 14:58:49;;;;;;;6.15;2.72;;;14.30;87.80;;;;;;5072692;28;20036;-72
2022/04/26 15:01:18;;;;;;;6.22;2.33;;;14.60;85.40;;;;;;5072810;28;20047;-72
2022/04/26 15:03:44;;;;;;;5.93;2.80;;;14.40;72.00;;;;;;5090896;28;20046;-74
2022/04/26 15:06:13;;;;;;;5.90;2.22;;;14.50;72.20;;;;;;5072990;28;20120;-74
2022/04/26 15:11:23;;;;;;;5.00;2.60;;;14.40;72.80;;;;;;5072775;28;20127;-72
2022/04/26 15:16:39;;;;;;;3.53;2.75;;;14.50;73.50;;;;;;5072804;28;20048;-72
2022/04/26 15:19:12;;;;;;;9.90;2.58;;;14.30;74.50;;;;;;5072835;28;20407;-72
2022/04/26 15:21:40;;;;;;;8.75;2.70;;;14.20;76.10;;;;;;5072863;28;20043;-72
2022/04/26 15:24:06;;;;;;;6.38;2.38;;;14.30;81.50;;;;;;5090792;28;20089;-72
2022/04/26 15:26:32;;;;;;;5.03;2.83;;;14.50;85.30;;;;;;5072942;28;20040;-72
2022/04/26 15:28:58;;;;;;;5.93;2.80;;;14.60;78.40;;;;;;5090907;28;20055;-72
2022/04/26 15:31:24;;;;;;;4.20;2.10;;;14.60;81.70;;;;;;5091357;28;20040;-72
2022/04/26 15:33:51;;;;;;;9.35;3.00;;;14.60;78.70;;;;;;5091369;28;20086;-72
2022/04/26 15:36:18;;;;;;;6.20;2.47;;;14.60;79.90;;;;;;5076301;28;20075;-73
2022/04/26 15:38:45;;;;;;;6.65;2.60;;;14.40;75.30;;;;;;5076504;28;20083;-72
2022/04/26 15:41:12;;;;;;;5.05;2.75;;;14.50;75.20;;;;;;5095542;28;20036;-73
2022/04/26 15:43:38;;;;;;;6.97;2.72;;;14.60;80.70;;;;;;5096178;28;20040;-72
2022/04/26 15:46:09;;;;;;;4.38;2.70;;;14.50;74.80;;;;;;5078052;28;20055;-72
2022/04/26 15:48:39;;;;;;;3.42;2.53;;;14.30;72.50;;;;;;5095673;28;20040;-74
2022/04/26 15:51:07;;;;;;;5.22;2.65;;;14.10;78.00;;;;;;5078824;28;20040;-73
2022/04/26 15:53:33;;;;;;;3.65;2.65;;;14.10;78.30;;;;;;5096357;28;20048;-73
2022/04/26 15:55:59;;;;;;;8.10;3.25;;;14.20;90.80;;;;;;5076896;28;20044;-73
2022/04/26 15:58:25;;;;;;;5.35;2.67;;;14.10;91.20;;;;;;5075979;28;20032;-73
2022/04/26 16:00:53;;;;;;;6.57;3.03;;;14.00;91.00;;;;;;5094243;28;20046;-73
2022/04/26 16:03:19;;;;;;;5.05;3.15;;;14.10;90.90;;;;;;5094328;28;20040;-73
2022/04/26 16:05:45;;;;;;;6.10;2.90;;;14.10;94.30;;;;;;5094099;28;20066;-72
2022/04/26 16:08:11;;;;;;;7.30;2.95;;;14.00;92.50;;;;;;5059246;28;20048;-73
2022/04/26 16:21:34;;;;;;;7.07;3.08;;;13.50;97.90;;;;;;5094035;28;20114;-72
2022/04/26 16:24:00;;;;;;;5.22;3.22;;;13.40;97.70;;;;;;5075720;28;20630;-73
2022/04/26 16:26:27;;;;;;;6.22;3.10;;;13.30;97.30;;;;;;5058955;28;20046;-72
2022/04/26 16:28:53;;;;;;;5.95;3.35;;;13.20;96.40;;;;;;5075185;28;20040;-73
2022/04/26 16:31:24;;;;;;;8.43;3.22;;;13.10;97.10;;;;;;5075448;28;20500;-73
2022/04/26 16:33:50;;;;;;;9.15;3.22;;;13.20;97.70;;;;;;5075716;28;20619;-73
2022/04/26 16:36:17;;;;;;;7.40;3.10;;;13.10;98.30;;;;;;5075307;28;20040;-72
2022/04/26 16:38:43;;;;;;;8.10;2.58;;;13.20;99.20;;;;;;5093364;28;20411;-73
2022/04/26 16:41:09;;;;;;;6.75;3.10;;;13.20;98.20;;;;;;5058585;28;20119;-73
2022/04/26 16:43:34;;;;;;;7.70;3.35;;;13.40;99.20;;;;;;5075243;28;20447;-73
2022/04/26 16:46:03;;;;;;;5.50;3.28;;;13.50;99.20;;;;;;5074501;28;20093;-72
2022/04/26 16:48:28;;;;;;;11.05;3.20;;;13.60;97.70;;;;;;5093209;28;20043;-74
2022/04/26 16:50:54;;;;;;;6.22;3.15;;;13.30;97.70;;;;;;5075068;28;20036;-72
2022/04/26 16:53:20;;;;;;;6.90;3.45;;;13.40;98.10;;;;;;5075390;28;20047;-73
2022/04/26 16:55:46;;;;;;;6.38;3.08;;;13.40;98.00;;;;;;5075017;28;20127;-72
2022/04/26 16:58:13;;;;;;;5.30;2.80;;;13.40;98.70;;;;;;5074905;28;20047;-73
2022/04/26 17:00:41;;;;;;;4.05;2.78;;;13.30;98.60;;;;;;5058343;28;20044;-72
2022/04/26 17:03:07;;;;;;;4.78;3.13;;;13.50;97.40;;;;;;5075165;28;20040;-72
2022/04/26 17:05:32;;;;;;;5.03;3.17;;;13.50;97.70;;;;;;5075091;28;20032;-72
2022/04/26 17:07:58;;;;;;;6.28;2.90;;;13.50;96.40;;;;;;5075150;28;20073;-73
2022/04/26 17:10:25;;;;;;;9.73;2.97;;;13.40;97.60;;;;;;5092647;28;20044;-72
2022/04/26 17:12:52;;;;;;;5.85;3.10;;;13.10;95.80;;;;;;5074962;28;20052;-72
2022/04/26 17:15:18;;;;;;;6.55;2.92;;;13.00;98.30;;;;;;5075567;28;20044;-72
2022/04/26 17:17:45;;;;;;;10.10;2.90;;;13.20;98.30;;;;;;5093725;28;20566;-73